Time;durP1;ratioP1;P1;durP2;ratioP2;P2;SDS_P1;SDS_P2;PMS_P1;PMS_P2;Temp;Humidity;BMP_temperature;BMP_pressure;BME280_temperature;BME280_humidity;BME280_pressure;Samples;Min_cycle;Max_cycle;Signal;HPM_P1;HPM_P2
2023/10/20 00:01:20;;;;;;;17.83;10.05;;;;;;;8.82;100.00;99296.31;10536350;27;20128;-63
2023/10/20 00:06:42;;;;;;;20.85;10.05;;;;;;;8.85;100.00;99287.56;10549323;27;20055;-63
2023/10/20 00:12:04;;;;;;;17.52;9.80;;;;;;;8.86;100.00;99297.00;10535053;27;20040;-63
2023/10/20 00:17:26;;;;;;;14.80;9.65;;;;;;;8.85;100.00;99292.72;10557473;27;20047;-63
2023/10/20 00:22:48;;;;;;;14.35;9.60;;;;;;;8.86;100.00;99300.38;10557341;27;20039;-63
2023/10/20 00:28:10;;;;;;;16.48;10.07;;;;;;;8.84;100.00;99284.19;10552693;27;20043;-63
2023/10/20 00:33:31;;;;;;;16.42;9.20;;;;;;;8.82;100.00;99290.31;10550659;27;20036;-63
2023/10/20 00:38:53;;;;;;;18.52;10.10;;;;;;;8.84;100.00;99279.03;10545260;27;20496;-63
2023/10/20 00:44:15;;;;;;;14.85;9.88;;;;;;;8.83;100.00;99276.50;10553073;27;20048;-63
2023/10/20 00:49:37;;;;;;;16.70;10.70;;;;;;;8.85;100.00;99254.88;10551205;27;20526;-63
2023/10/20 00:54:59;;;;;;;16.38;10.57;;;;;;;8.83;100.00;99253.28;10540890;27;20031;-63
2023/10/20 01:00:21;;;;;;;17.17;11.38;;;;;;;8.85;100.00;99244.56;10541642;27;20047;-63
2023/10/20 01:05:43;;;;;;;17.60;11.93;;;;;;;8.84;100.00;99232.59;10539043;27;20127;-63
2023/10/20 01:11:05;;;;;;;18.42;10.68;;;;;;;8.86;100.00;99235.09;10537824;27;20496;-63
2023/10/20 01:16:27;;;;;;;16.63;10.85;;;;;;;8.78;100.00;99248.38;10547117;27;20048;-63
2023/10/20 01:21:49;;;;;;;14.38;10.80;;;;;;;8.79;100.00;99221.66;10544206;27;20123;-63
2023/10/20 01:27:11;;;;;;;17.13;11.52;;;;;;;8.78;100.00;99221.72;10545030;27;20040;-63
2023/10/20 01:32:32;;;;;;;17.42;10.98;;;;;;;8.73;100.00;99209.06;10543767;27;20047;-63
2023/10/20 01:37:54;;;;;;;14.57;10.90;;;;;;;8.70;100.00;99204.06;10540534;27;20457;-63
2023/10/20 01:43:16;;;;;;;16.23;10.73;;;;;;;8.71;100.00;99195.44;10561093;27;20043;-63
2023/10/20 01:48:37;;;;;;;15.82;10.02;;;;;;;8.63;100.00;99187.22;10547156;27;20061;-63
2023/10/20 01:53:59;;;;;;;14.05;10.27;;;;;;;8.65;100.00;99200.03;10552490;27;20043;-64
2023/10/20 01:59:21;;;;;;;15.18;9.95;;;;;;;8.68;100.00;99168.97;10551710;27;20055;-63
2023/10/20 02:04:42;;;;;;;15.85;9.82;;;;;;;8.67;100.00;99160.38;10551195;27;20043;-63
2023/10/20 02:10:06;;;;;;;12.20;9.13;;;;;;;8.64;100.00;99146.81;10554863;28;20054;-63
2023/10/20 02:15:29;;;;;;;12.32;8.70;;;;;;;8.61;100.00;99152.94;10557727;27;20043;-63
2023/10/20 02:21:04;;;;;;;11.77;8.48;;;;;;;8.64;100.00;99152.81;10561169;27;20047;-63
2023/10/20 02:26:25;;;;;;;12.88;7.95;;;;;;;8.66;100.00;99165.63;10563728;27;20039;-63
2023/10/20 02:31:47;;;;;;;9.05;7.55;;;;;;;8.66;100.00;99176.75;10560569;27;20111;-63
2023/10/20 02:37:12;;;;;;;12.02;7.85;;;;;;;8.66;100.00;99187.06;10557134;27;20054;-63
2023/10/20 02:42:34;;;;;;;8.13;6.60;;;;;;;8.67;100.00;99144.91;10565478;27;20074;-63
2023/10/20 02:47:55;;;;;;;10.18;6.50;;;;;;;8.62;100.00;99134.00;10561265;27;20044;-63
2023/10/20 02:53:20;;;;;;;7.80;6.05;;;;;;;8.67;100.00;99156.97;10563304;27;20040;-63
2023/10/20 02:58:45;;;;;;;7.35;5.60;;;;;;;8.65;100.00;99141.56;10565274;27;20040;-63
2023/10/20 03:04:07;;;;;;;6.60;5.38;;;;;;;8.65;100.00;99128.69;10553104;27;20052;-63
2023/10/20 03:09:29;;;;;;;8.18;5.18;;;;;;;8.67;100.00;99126.88;10561371;27;20052;-63
2023/10/20 03:14:51;;;;;;;7.38;5.18;;;;;;;8.67;100.00;99111.41;10570535;27;20054;-63
2023/10/20 03:20:17;;;;;;;5.55;4.90;;;;;;;8.67;100.00;99108.81;10546524;27;20058;-63
2023/10/20 03:25:40;;;;;;;6.97;4.78;;;;;;;8.69;100.00;99099.25;10538781;27;20123;-63
2023/10/20 03:31:02;;;;;;;7.38;4.32;;;;;;;8.66;100.00;99096.00;10556115;27;20057;-63
2023/10/20 03:36:24;;;;;;;5.47;4.07;;;;;;;8.64;100.00;99106.41;10545864;27;20464;-63
2023/10/20 03:41:49;;;;;;;5.68;4.00;;;;;;;8.63;100.00;99096.97;10547533;27;20048;-63
2023/10/20 03:47:10;;;;;;;6.25;4.00;;;;;;;8.65;100.00;99081.44;10542056;27;20040;-63
2023/10/20 03:52:32;;;;;;;6.90;3.97;;;;;;;8.67;100.00;99074.47;10540033;27;20059;-63
2023/10/20 03:57:53;;;;;;;6.50;3.85;;;;;;;8.64;100.00;99062.56;10546872;27;20490;-63
2023/10/20 04:03:15;;;;;;;4.32;3.55;;;;;;;8.66;100.00;99053.00;10564377;27;20596;-63
2023/10/20 04:08:37;;;;;;;4.75;3.50;;;;;;;8.66;100.00;99042.69;10555000;27;20079;-63
2023/10/20 04:13:59;;;;;;;9.55;3.25;;;;;;;8.64;100.00;99007.59;10554696;27;20039;-63
2023/10/20 04:19:21;;;;;;;3.10;2.80;;;;;;;8.65;100.00;99007.50;10540382;27;20450;-63
2023/10/20 04:24:44;;;;;;;3.63;2.70;;;;;;;8.66;100.00;99010.94;10548500;27;20487;-63
2023/10/20 04:53:11;;;;;;;2.80;2.30;;;;;;;8.71;100.00;98970.25;10543906;27;20495;-63
2023/10/20 05:09:50;;;;;;;3.22;1.90;;;;;;;8.76;100.00;98976.84;10556573;27;20081;-63
2023/10/20 05:15:13;;;;;;;2.13;1.60;;;;;;;8.77;100.00;98967.38;10557937;27;20492;-63
2023/10/20 05:20:36;;;;;;;2.85;1.60;;;;;;;8.74;100.00;98973.50;10554805;27;20051;-63
2023/10/20 05:25:58;;;;;;;2.85;1.60;;;;;;;8.72;100.00;98952.13;10552887;27;20075;-63
2023/10/20 05:31:26;;;;;;;1.58;1.30;;;;;;;8.70;100.00;98945.38;10551129;27;20062;-63
2023/10/20 05:36:48;;;;;;;3.15;1.25;;;;;;;8.67;100.00;98936.06;10557358;27;20364;-63
2023/10/20 05:42:11;;;;;;;3.42;1.40;;;;;;;8.67;100.00;98945.53;10562677;27;20043;-66
2023/10/20 05:47:32;;;;;;;3.40;1.30;;;;;;;8.63;100.00;98965.50;10550532;27;20502;-63
2023/10/20 05:52:54;;;;;;;1.90;1.50;;;;;;;8.63;100.00;98960.34;10539834;27;20123;-63
2023/10/20 05:58:16;;;;;;;2.70;1.50;;;;;;;8.58;100.00;98946.88;10550706;27;20048;-63
2023/10/20 06:03:38;;;;;;;1.77;1.60;;;;;;;8.51;100.00;98948.09;10550351;27;20043;-63
2023/10/20 06:09:00;;;;;;;6.60;1.85;;;;;;;8.47;100.00;98930.28;10562704;27;20048;-63
2023/10/20 06:14:23;;;;;;;3.25;1.88;;;;;;;8.45;100.00;98926.97;10554762;27;20682;-63
2023/10/20 06:19:48;;;;;;;2.80;1.80;;;;;;;8.46;100.00;98926.06;10554452;28;20043;-63
2023/10/20 06:25:12;;;;;;;2.73;1.80;;;;;;;8.43;100.00;98916.75;10557639;28;20043;-63
2023/10/20 06:30:41;;;;;;;4.13;2.20;;;;;;;8.40;100.00;98895.44;10556155;28;20561;-63
2023/10/20 06:36:10;;;;;;;5.97;2.20;;;;;;;8.34;100.00;98901.75;10556444;28;20048;-63
2023/10/20 06:41:32;;;;;;;3.53;2.20;;;;;;;8.33;100.00;98883.81;10548455;28;20135;-64
2023/10/20 06:46:55;;;;;;;2.80;2.40;;;;;;;8.31;100.00;98885.63;10545467;28;20491;-63
2023/10/20 06:52:19;;;;;;;3.45;2.40;;;;;;;8.30;100.00;98905.41;10552246;28;20058;-63
2023/10/20 06:57:41;;;;;;;4.50;2.30;;;;;;;8.28;100.00;98901.25;10541486;28;20130;-63
2023/10/20 07:03:03;;;;;;;5.18;2.28;;;;;;;8.22;100.00;98889.50;10555307;28;20519;-63
2023/10/20 07:08:25;;;;;;;3.35;2.70;;;;;;;8.24;100.00;98900.56;10553643;27;20044;-63
2023/10/20 07:13:46;;;;;;;3.25;2.55;;;;;;;8.16;100.00;98894.94;10558920;27;20488;-63
2023/10/20 07:19:09;;;;;;;5.07;2.72;;;;;;;8.12;100.00;98889.13;10561181;27;20047;-63
2023/10/20 07:24:31;;;;;;;4.05;2.55;;;;;;;8.14;100.00;98881.31;10555389;27;20547;-63
2023/10/20 07:29:53;;;;;;;4.28;2.70;;;;;;;8.12;100.00;98867.69;10573466;27;20043;-62
2023/10/20 07:35:15;;;;;;;3.00;2.40;;;;;;;8.08;100.00;98858.44;10549487;27;20048;-63
2023/10/20 07:40:37;;;;;;;5.25;2.20;;;;;;;8.12;100.00;98872.81;10562253;27;20551;-63
2023/10/20 07:45:59;;;;;;;3.72;2.28;;;;;;;8.08;100.00;98869.59;10562881;27;20392;-63
2023/10/20 07:51:21;;;;;;;5.38;2.58;;;;;;;8.01;100.00;98846.78;10572025;27;20043;-63
2023/10/20 07:56:43;;;;;;;6.18;2.88;;;;;;;8.04;100.00;98856.94;10551964;27;20143;-63
2023/10/20 08:02:05;;;;;;;3.80;2.47;;;;;;;8.08;100.00;98853.28;10560465;27;20061;-63
2023/10/20 08:07:27;;;;;;;5.68;2.22;;;;;;;8.07;100.00;98864.50;10559438;27;20483;-63
2023/10/20 08:12:49;;;;;;;6.53;2.58;;;;;;;8.07;100.00;98859.38;10555357;27;20075;-63
2023/10/20 08:18:11;;;;;;;5.32;1.98;;;;;;;8.05;100.00;98858.59;10558987;27;20047;-63
2023/10/20 08:23:33;;;;;;;4.75;2.20;;;;;;;8.05;100.00;98850.88;10553934;27;20062;-64
2023/10/20 08:28:55;;;;;;;2.40;2.03;;;;;;;8.02;100.00;98838.97;10545894;27;20048;-63
2023/10/20 08:34:17;;;;;;;3.47;1.92;;;;;;;8.01;100.00;98821.03;10539675;27;20131;-63
2023/10/20 08:39:39;;;;;;;3.38;2.05;;;;;;;8.00;100.00;98806.50;10554038;27;20047;-64
2023/10/20 08:45:00;;;;;;;2.70;2.00;;;;;;;7.96;100.00;98820.44;10545279;27;20036;-64
2023/10/20 08:50:23;;;;;;;3.47;1.80;;;;;;;7.98;100.00;98827.16;10544290;27;20052;-63
2023/10/20 08:55:46;;;;;;;3.30;1.50;;;;;;;7.95;100.00;98822.19;10542333;27;20047;-63
2023/10/20 09:01:08;;;;;;;5.00;1.30;;;;;;;7.92;100.00;98830.09;10552922;27;20142;-63
2023/10/20 09:06:30;;;;;;;1.20;1.10;;;;;;;7.84;100.00;98821.06;10542014;27;20051;-63
2023/10/20 09:11:53;;;;;;;4.03;1.17;;;;;;;7.85;100.00;98833.88;10546776;27;20043;-64
2023/10/20 09:17:22;;;;;;;6.55;1.30;;;;;;;7.86;100.00;98821.81;10547283;27;20045;-64
2023/10/20 09:22:44;;;;;;;2.72;1.10;;;;;;;7.84;100.00;98831.38;10549995;27;20047;-63
2023/10/20 09:28:06;;;;;;;1.27;1.00;;;;;;;7.80;100.00;98838.41;10542537;27;20048;-63
2023/10/20 09:33:28;;;;;;;1.17;1.00;;;;;;;7.79;100.00;98820.47;10551736;27;20035;-62
2023/10/20 09:38:52;;;;;;;2.35;1.20;;;;;;;7.72;100.00;98809.69;10548118;27;20048;-63
2023/10/20 09:44:47;;;;;;;2.25;1.13;;;;;;;7.72;100.00;98808.84;10540353;27;20063;-63
2023/10/20 09:50:14;;;;;;;1.05;0.98;;;;;;;7.66;100.00;98798.84;10540669;27;20113;-64
2023/10/20 09:55:36;;;;;;;2.90;1.00;;;;;;;7.69;100.00;98812.38;10548049;27;20499;-63
2023/10/20 10:00:58;;;;;;;1.90;1.10;;;;;;;7.67;100.00;98809.06;10545263;27;20048;-63
2023/10/20 10:06:20;;;;;;;1.48;0.98;;;;;;;7.70;100.00;98821.78;10541329;27;20074;-63
2023/10/20 10:11:42;;;;;;;1.98;1.27;;;;;;;7.65;100.00;98812.63;10553889;28;20122;-63
2023/10/20 10:17:11;;;;;;;5.03;1.30;;;;;;;7.64;100.00;98809.22;10547782;28;20043;-63
2023/10/20 10:22:33;;;;;;;2.47;1.35;;;;;;;7.66;100.00;98804.00;10544628;28;20502;-63
2023/10/20 10:27:55;;;;;;;3.25;1.40;;;;;;;7.67;100.00;98806.47;10538976;28;20462;-63
2023/10/20 10:33:22;;;;;;;1.58;1.40;;;;;;;7.66;100.00;98797.13;10540646;28;20051;-63
2023/10/20 10:38:44;;;;;;;10.38;1.48;;;;;;;7.63;100.00;98793.88;10531846;28;20043;-63
2023/10/20 10:44:08;;;;;;;2.47;1.58;;;;;;;7.59;100.00;98788.03;10559163;27;20050;-63
2023/10/20 10:49:31;;;;;;;4.15;1.80;;;;;;;7.57;100.00;98776.16;10552616;27;20113;-63
2023/10/20 10:54:53;;;;;;;2.53;1.70;;;;;;;7.51;100.00;98763.63;10553558;27;20039;-63
2023/10/20 11:00:18;;;;;;;2.90;1.88;;;;;;;7.51;100.00;98753.31;10556760;27;20043;-63
2023/10/20 11:05:40;;;;;;;3.28;1.70;;;;;;;7.53;100.00;98743.75;10551658;27;20427;-64
2023/10/20 11:11:02;;;;;;;4.05;2.20;;;;;;;7.51;100.00;98733.56;10560099;27;20079;-63
2023/10/20 11:16:24;;;;;;;3.40;1.55;;;;;;;7.57;100.00;98729.84;10554998;27;20400;-63
2023/10/20 11:21:48;;;;;;;2.13;1.45;;;;;;;7.53;100.00;98725.75;10554255;27;20149;-63
2023/10/20 11:27:09;;;;;;;2.28;1.67;;;;;;;7.54;100.00;98736.00;10558266;27;20054;-64
2023/10/20 11:32:34;;;;;;;3.70;1.75;;;;;;;7.54;100.00;98732.56;10549418;27;20048;-64
2023/10/20 11:37:57;;;;;;;3.22;1.40;;;;;;;7.48;100.00;98712.28;10537739;27;20159;-63
2023/10/20 11:43:19;;;;;;;2.50;1.50;;;;;;;7.53;100.00;98712.88;10551187;27;20040;-63
2023/10/20 11:48:40;;;;;;;1.92;1.27;;;;;;;7.54;100.00;98706.84;10543158;27;20047;-63
2023/10/20 11:54:03;;;;;;;1.50;1.38;;;;;;;7.53;100.00;98718.03;10541582;27;20051;-63
2023/10/20 11:59:24;;;;;;;1.30;1.20;;;;;;;7.50;100.00;98689.91;10554537;27;20050;-63
2023/10/20 12:04:46;;;;;;;5.65;1.30;;;;;;;7.52;100.00;98683.78;10550380;27;20135;-64
2023/10/20 12:10:08;;;;;;;1.83;1.25;;;;;;;7.54;100.00;98665.66;10548313;27;20047;-63
2023/10/20 12:15:32;;;;;;;2.53;1.30;;;;;;;7.50;100.00;98656.44;10542233;27;20043;-63
2023/10/20 12:20:54;;;;;;;1.65;1.30;;;;;;;7.46;100.00;98634.34;10553459;27;20039;-64
2023/10/20 12:26:16;;;;;;;1.30;1.20;;;;;;;7.50;100.00;98638.44;10552072;27;20040;-63
2023/10/20 12:31:37;;;;;;;4.63;1.20;;;;;;;7.51;100.00;98606.66;10545932;27;20079;-64
2023/10/20 12:37:00;;;;;;;1.30;0.95;;;;;;;7.53;100.00;98597.94;10534819;27;20061;-64
2023/10/20 12:42:22;;;;;;;1.20;1.08;;;;;;;7.52;100.00;98587.72;10564597;27;20054;-64
2023/10/20 12:47:44;;;;;;;3.13;1.20;;;;;;;7.58;100.00;98561.69;10546796;27;20035;-64
2023/10/20 12:53:08;;;;;;;1.20;1.08;;;;;;;7.55;100.00;98554.09;10547953;27;20567;-64
2023/10/20 12:58:31;;;;;;;1.23;1.08;;;;;;;7.56;100.00;98541.19;10551849;27;20057;-63
2023/10/20 13:03:53;;;;;;;2.33;1.15;;;;;;;7.57;100.00;98532.53;10557084;27;20092;-64
2023/10/20 13:09:17;;;;;;;2.20;1.13;;;;;;;7.64;100.00;98523.56;10546563;27;20258;-64
2023/10/20 13:14:39;;;;;;;2.55;0.98;;;;;;;7.63;100.00;98500.47;10551700;27;20040;-63
2023/10/20 13:20:00;;;;;;;1.50;1.17;;;;;;;7.62;100.00;98494.50;10553131;27;20392;-63
2023/10/20 13:25:27;;;;;;;1.27;1.15;;;;;;;7.59;100.00;98478.41;10556560;27;20035;-63
2023/10/20 13:30:49;;;;;;;1.17;0.98;;;;;;;7.63;100.00;98465.28;10554195;27;20046;-64
2023/10/20 13:36:14;;;;;;;1.97;1.00;;;;;;;7.64;100.00;98463.53;10555805;27;20043;-64
2023/10/20 13:41:37;;;;;;;1.60;1.27;;;;;;;7.62;100.00;98449.91;10549268;27;20496;-64
2023/10/20 13:46:59;;;;;;;0.90;0.90;;;;;;;7.59;100.00;98462.97;10552396;27;20044;-64
2023/10/20 13:52:22;;;;;;;1.00;0.90;;;;;;;7.57;100.00;98468.19;10553391;27;20139;-64
2023/10/20 13:57:45;;;;;;;1.20;1.10;;;;;;;7.58;100.00;98456.97;10558849;27;20674;-64
2023/10/20 14:03:07;;;;;;;1.10;1.00;;;;;;;7.59;100.00;98478.41;10553632;27;20404;-64
2023/10/20 14:08:29;;;;;;;1.70;1.20;;;;;;;7.58;100.00;98461.31;10556022;27;20050;-64
2023/10/20 14:13:51;;;;;;;1.40;1.27;;;;;;;7.58;100.00;98476.75;10551785;27;20085;-64
2023/10/20 14:19:12;;;;;;;4.68;1.00;;;;;;;7.62;100.00;98480.78;10550965;28;20046;-63
2023/10/20 14:24:34;;;;;;;1.88;1.10;;;;;;;7.61;100.00;98482.56;10547334;28;20411;-64
2023/10/20 14:29:56;;;;;;;1.10;1.00;;;;;;;7.59;100.00;98493.84;10550254;28;20156;-63
2023/10/20 14:35:17;;;;;;;2.50;1.20;;;;;;;7.60;100.00;98459.50;10545853;28;20036;-63
2023/10/20 14:40:39;;;;;;;1.63;1.00;;;;;;;7.59;100.00;98484.38;10545354;28;20063;-64
2023/10/20 14:46:03;;;;;;;2.13;1.30;;;;;;;7.60;100.00;98467.22;10544967;28;20044;-63
2023/10/20 14:51:25;;;;;;;1.80;1.20;;;;;;;7.61;100.00;98461.13;10549228;28;20052;-64
2023/10/20 14:56:47;;;;;;;2.45;1.30;;;;;;;7.60;100.00;98480.06;10556405;28;20042;-63
2023/10/20 15:02:09;;;;;;;3.53;1.20;;;;;;;7.62;100.00;98501.38;10547761;28;20043;-64
2023/10/20 15:07:31;;;;;;;2.28;1.08;;;;;;;7.60;100.00;98506.63;10554118;28;20040;-64
2023/10/20 15:12:52;;;;;;;0.80;0.65;;;;;;;7.63;100.00;98527.06;10547300;28;20044;-63
2023/10/20 15:18:14;;;;;;;1.38;0.90;;;;;;;7.62;100.00;98511.69;10549597;28;20062;-63
2023/10/20 15:23:36;;;;;;;6.85;0.70;;;;;;;7.60;100.00;98474.94;10548618;28;20093;-64
2023/10/20 15:28:58;;;;;;;3.13;0.77;;;;;;;7.56;100.00;98468.28;10546963;27;20039;-64
2023/10/20 15:34:19;;;;;;;2.28;1.00;;;;;;;7.58;100.00;98420.16;10557527;27;20066;-64
2023/10/20 15:39:41;;;;;;;7.63;0.70;;;;;;;7.56;100.00;98422.81;10559139;27;20549;-63
2023/10/20 15:45:13;;;;;;;0.75;0.52;;;;;;;7.53;100.00;98411.84;10550729;27;20040;-64
2023/10/20 15:50:42;;;;;;;1.15;1.05;;;;;;;7.49;100.00;98418.09;10550226;27;20477;-64
2023/10/20 15:56:04;;;;;;;0.80;0.80;;;;;;;7.49;100.00;98436.09;10562857;27;20121;-63
2023/10/20 16:01:25;;;;;;;3.08;0.90;;;;;;;7.45;100.00;98424.31;10553506;27;20047;-64
2023/10/20 16:06:47;;;;;;;1.83;0.90;;;;;;;7.44;100.00;98409.78;10557864;27;20128;-64
2023/10/20 16:12:09;;;;;;;1.27;1.08;;;;;;;7.50;100.00;98422.31;10543907;27;20496;-63
2023/10/20 16:17:30;;;;;;;1.20;1.10;;;;;;;7.50;100.00;98414.59;10549807;27;20511;-63
2023/10/20 16:22:52;;;;;;;1.80;1.05;;;;;;;7.49;100.00;98408.59;10558517;27;20049;-64
2023/10/20 16:28:14;;;;;;;1.45;0.90;;;;;;;7.49;100.00;98410.38;10560166;27;20040;-63
2023/10/20 16:33:36;;;;;;;2.55;0.90;;;;;;;7.48;100.00;98406.13;10551209;27;20048;-64
2023/10/20 16:38:59;;;;;;;1.58;0.80;;;;;;;7.49;100.00;98405.22;10534685;27;20036;-63
2023/10/20 16:44:20;;;;;;;1.27;0.75;;;;;;;7.46;100.00;98406.22;10554358;27;20108;-64
2023/10/20 16:49:42;;;;;;;1.70;0.77;;;;;;;7.45;100.00;98412.31;10551519;27;20472;-63
2023/10/20 16:55:04;;;;;;;1.95;0.80;;;;;;;7.48;100.00;98411.28;10545839;27;20036;-64
2023/10/20 17:00:26;;;;;;;1.02;0.93;;;;;;;7.51;100.00;98403.41;10542295;27;20074;-63
2023/10/20 17:05:47;;;;;;;0.90;0.80;;;;;;;7.49;100.00;98418.91;10550374;27;20032;-63
2023/10/20 17:11:11;;;;;;;2.83;0.60;;;;;;;7.50;100.00;98423.16;10540163;27;20104;-63
2023/10/20 17:16:33;;;;;;;1.88;1.02;;;;;;;7.48;100.00;98429.28;10541513;27;20124;-64
2023/10/20 17:21:54;;;;;;;1.05;0.80;;;;;;;7.48;100.00;98444.72;10545409;27;20044;-63
2023/10/20 17:27:16;;;;;;;1.50;1.40;;;;;;;7.48;100.00;98444.72;10550679;27;20485;-64
2023/10/20 17:32:38;;;;;;;1.40;1.30;;;;;;;7.49;100.00;98442.06;10543198;27;20052;-64
2023/10/20 17:38:00;;;;;;;0.82;0.73;;;;;;;7.51;100.00;98458.25;10544846;27;20031;-64
2023/10/20 17:43:22;;;;;;;0.98;0.85;;;;;;;7.50;100.00;98448.03;10544721;27;20143;-64
2023/10/20 17:48:44;;;;;;;1.05;0.50;;;;;;;7.51;100.00;98449.72;10546391;27;20055;-64
2023/10/20 17:54:06;;;;;;;0.60;0.60;;;;;;;7.51;100.00;98460.00;10543578;27;20163;-63
2023/10/20 17:59:29;;;;;;;0.70;0.60;;;;;;;7.53;100.00;98463.28;10545473;27;20048;-63
2023/10/20 18:04:51;;;;;;;0.85;0.80;;;;;;;7.48;100.00;98460.16;10530709;27;20552;-63
2023/10/20 18:10:13;;;;;;;0.60;0.60;;;;;;;7.48;100.00;98457.59;10548304;27;20135;-63
2023/10/20 18:15:39;;;;;;;0.60;0.60;;;;;;;7.40;100.00;98459.78;10540114;27;20036;-64
2023/10/20 18:21:00;;;;;;;;;;;;;;;7.45;100.00;98452.63;10550367;28;20131;-63
2023/10/20 18:26:25;;;;;;;1.50;1.10;;;;;;;7.45;100.00;98465.47;10537552;28;19996;-64
2023/10/20 18:31:47;;;;;;;1.17;0.75;;;;;;;7.45;100.00;98470.63;10547475;28;20055;-64
2023/10/20 18:37:09;;;;;;;1.23;0.75;;;;;;;7.42;100.00;98475.94;10552546;28;20122;-63
2023/10/20 18:42:31;;;;;;;1.00;0.90;;;;;;;7.44;100.00;98474.09;10551337;28;20074;-63
2023/10/20 18:47:54;;;;;;;0.90;0.90;;;;;;;7.46;100.00;98478.25;10552169;28;20039;-63
2023/10/20 18:53:16;;;;;;;2.70;0.70;;;;;;;7.47;100.00;98473.94;10545738;28;20048;-64
2023/10/20 18:58:38;;;;;;;1.08;0.98;;;;;;;7.46;100.00;98469.69;10556116;28;20483;-67
2023/10/20 19:04:01;;;;;;;1.95;1.33;;;;;;;7.48;100.00;98480.75;10555371;27;20058;-64
2023/10/20 19:09:22;;;;;;;2.20;0.90;;;;;;;7.48;100.00;98484.16;10561140;27;20132;-63
2023/10/20 19:14:44;;;;;;;2.42;1.45;;;;;;;7.49;100.00;98487.56;10546034;27;20040;-63
2023/10/20 19:20:07;;;;;;;0.82;0.77;;;;;;;7.47;100.00;98490.19;10557433;27;20166;-63
2023/10/20 19:25:28;;;;;;;0.80;0.80;;;;;;;7.52;100.00;98503.66;10553555;27;20040;-63
2023/10/20 19:30:56;;;;;;;1.30;1.00;;;;;;;7.52;100.00;98502.81;10556821;27;20046;-64
2023/10/20 19:36:18;;;;;;;1.38;1.02;;;;;;;7.54;100.00;98501.00;10545922;27;20047;-63
2023/10/20 19:41:40;;;;;;;1.05;0.77;;;;;;;7.56;100.00;98497.44;10547502;27;20047;-63
2023/10/20 19:47:01;;;;;;;1.00;0.90;;;;;;;7.59;100.00;98499.00;10553201;27;20039;-63
2023/10/20 19:52:23;;;;;;;1.10;1.05;;;;;;;7.58;100.00;98507.63;10551070;27;20048;-63
2023/10/20 19:57:47;;;;;;;2.63;1.33;;;;;;;7.58;100.00;98523.06;10553159;27;20036;-63
2023/10/20 20:03:10;;;;;;;0.98;0.98;;;;;;;7.58;100.00;98526.44;10535718;27;20411;-63
2023/10/20 20:08:32;;;;;;;1.60;1.50;;;;;;;7.63;100.00;98526.22;10533892;27;20105;-63
2023/10/20 20:13:54;;;;;;;1.40;1.30;;;;;;;7.64;100.00;98538.16;10541330;27;20436;-63
2023/10/20 20:19:15;;;;;;;1.27;1.17;;;;;;;7.62;100.00;98537.41;10570094;27;20051;-64
2023/10/20 20:24:37;;;;;;;2.33;1.40;;;;;;;7.64;100.00;98539.00;10564481;27;20518;-63
2023/10/20 20:29:59;;;;;;;3.70;2.55;;;;;;;7.64;100.00;98533.00;10552687;27;20054;-65
2023/10/20 20:35:21;;;;;;;1.70;1.38;;;;;;;7.65;100.00;98535.53;10560049;27;20048;-64
2023/10/20 20:40:43;;;;;;;1.88;1.50;;;;;;;7.72;100.00;98546.28;10541156;27;20611;-63
2023/10/20 20:46:05;;;;;;;1.75;1.50;;;;;;;7.73;100.00;98545.38;10557779;27;20054;-63
2023/10/20 20:51:27;;;;;;;1.77;1.67;;;;;;;7.77;100.00;98555.44;10556669;27;20250;-63
2023/10/20 20:56:48;;;;;;;1.73;1.63;;;;;;;7.80;100.00;98544.94;10553112;27;20040;-63
2023/10/20 21:02:11;;;;;;;2.38;2.00;;;;;;;7.78;100.00;98545.97;10543803;27;20047;-63
2023/10/20 21:07:33;;;;;;;2.70;2.15;;;;;;;7.83;100.00;98559.41;10543243;27;20142;-63
2023/10/20 21:12:55;;;;;;;4.40;2.38;;;;;;;7.87;100.00;98556.56;10549485;27;20568;-63
2023/10/20 21:18:16;;;;;;;3.97;2.17;;;;;;;7.90;100.00;98556.41;10552377;27;20051;-63
2023/10/20 21:23:39;;;;;;;2.92;2.40;;;;;;;7.94;100.00;98555.31;10544964;27;20055;-63
2023/10/20 21:29:02;;;;;;;3.08;2.78;;;;;;;7.92;100.00;98561.47;10553248;27;20055;-63
2023/10/20 21:34:24;;;;;;;3.30;2.95;;;;;;;7.97;100.00;98573.16;10546916;27;20058;-63
2023/10/20 21:39:46;;;;;;;4.03;3.40;;;;;;;8.02;100.00;98570.34;10546731;27;20636;-63
2023/10/20 21:45:08;;;;;;;5.28;3.53;;;;;;;8.06;100.00;98567.50;10546714;27;20454;-63
2023/10/20 21:50:31;;;;;;;4.20;3.53;;;;;;;8.07;100.00;98560.63;10549818;27;20097;-63
2023/10/20 21:56:03;;;;;;;5.28;4.03;;;;;;;8.09;100.00;98572.47;10549992;28;20048;-64
2023/10/20 22:01:25;;;;;;;6.40;3.88;;;;;;;8.11;100.00;98585.28;10547810;27;20139;-63
2023/10/20 22:06:46;;;;;;;4.50;3.80;;;;;;;8.11;100.00;98595.59;10549273;27;20039;-63
2023/10/20 22:12:08;;;;;;;5.57;4.50;;;;;;;8.10;100.00;98588.75;10544639;27;20043;-63
2023/10/20 22:17:30;;;;;;;5.78;4.20;;;;;;;8.17;100.00;98602.94;10552790;27;20369;-63
2023/10/20 22:22:51;;;;;;;6.20;4.40;;;;;;;8.18;100.00;98596.91;10549589;27;20138;-63
2023/10/20 22:28:13;;;;;;;5.22;4.28;;;;;;;8.23;100.00;98597.47;10553379;28;20051;-63
2023/10/20 22:33:35;;;;;;;5.10;4.13;;;;;;;8.27;100.00;98601.56;10550134;28;20365;-63
2023/10/20 22:38:56;;;;;;;6.07;4.85;;;;;;;8.29;100.00;98604.03;10562460;27;20130;-63
2023/10/20 22:44:18;;;;;;;7.10;4.68;;;;;;;8.33;100.00;98608.94;10560443;27;20100;-63
2023/10/20 22:49:40;;;;;;;5.63;4.72;;;;;;;8.38;100.00;98616.41;10559211;27;20142;-63
2023/10/20 22:55:03;;;;;;;6.28;5.50;;;;;;;8.37;100.00;98617.34;10549665;27;20127;-63
2023/10/20 23:00:25;;;;;;;11.35;5.10;;;;;;;8.41;100.00;98629.94;10558976;27;20055;-63
2023/10/20 23:05:47;;;;;;;9.45;5.80;;;;;;;8.44;100.00;98629.75;10548830;27;20054;-63
2023/10/20 23:11:09;;;;;;;9.93;5.60;;;;;;;8.46;100.00;98651.13;10569801;27;20212;-63
2023/10/20 23:16:31;;;;;;;7.70;6.28;;;;;;;8.48;100.00;98651.06;10553399;27;20036;-63
2023/10/20 23:21:52;;;;;;;8.05;6.00;;;;;;;8.51;100.00;98656.88;10566667;27;20055;-63
2023/10/20 23:27:14;;;;;;;8.70;6.40;;;;;;;8.58;100.00;98657.34;10557278;27;20043;-63
2023/10/20 23:32:36;;;;;;;13.57;6.80;;;;;;;8.61;100.00;98659.72;10553296;27;20056;-63
2023/10/20 23:37:57;;;;;;;8.90;6.97;;;;;;;8.61;100.00;98672.63;10552675;27;20668;-63
2023/10/20 23:43:19;;;;;;;11.00;7.65;;;;;;;8.62;100.00;98669.97;10554757;27;20130;-63
2023/10/20 23:48:41;;;;;;;13.25;8.23;;;;;;;8.66;100.00;98671.44;10554886;27;20044;-63
2023/10/20 23:54:02;;;;;;;11.45;7.70;;;;;;;8.69;100.00;98665.28;10548905;27;20104;-63
2023/10/20 23:59:24;;;;;;;13.23;7.65;;;;;;;8.71;100.00;98674.59;10556358;27;20089;-63
